Time;durP1;ratioP1;P1;durP2;ratioP2;P2;SDS_P1;SDS_P2;PMS_P1;PMS_P2;Temp;Humidity;BMP_temperature;BMP_pressure;BME280_temperature;BME280_humidity;BME280_pressure;Samples;Min_cycle;Max_cycle;Signal;HPM_P1;HPM_P2
2022/06/26 00:02:13;;;;;;;5.75;3.58;;;;;;;20.16;66.24;99817.22;5070331;28;20543;-62
2022/06/26 00:04:44;;;;;;;5.20;3.63;;;;;;;20.15;66.49;99813.59;5060393;28;20413;-62
2022/06/26 00:07:12;;;;;;;3.75;3.40;;;;;;;20.12;66.63;99811.56;5054122;28;20061;-62
2022/06/26 00:09:58;;;;;;;4.68;4.18;;;;;;;20.13;66.66;99816.00;5052631;28;20509;-62
2022/06/26 00:12:26;;;;;;;6.38;5.07;;;;;;;20.13;66.89;99812.38;5051906;28;20053;-62
2022/06/26 00:14:53;;;;;;;5.10;4.60;;;;;;;20.09;67.18;99820.81;5061566;28;20412;-62
2022/06/26 00:17:20;;;;;;;4.95;4.15;;;;;;;20.06;67.34;99813.94;5053792;28;20401;-62
2022/06/26 00:19:48;;;;;;;5.93;3.88;;;;;;;20.05;67.19;99823.66;5052415;28;20048;-63
2022/06/26 00:22:17;;;;;;;4.85;3.90;;;;;;;20.05;67.29;99829.31;5052105;28;20055;-62
2022/06/26 00:24:46;;;;;;;5.40;4.38;;;;;;;20.05;67.45;99854.75;5052495;28;20124;-62
2022/06/26 00:27:15;;;;;;;4.38;3.92;;;;;;;20.07;67.66;99885.44;5057451;28;20060;-62
2022/06/26 00:29:42;;;;;;;7.60;4.47;;;;;;;19.92;67.63;99900.69;5052296;28;20053;-62
2022/06/26 00:32:13;;;;;;;4.88;3.55;;;;;;;19.84;65.34;99897.81;5052014;28;20064;-62
2022/06/26 00:34:40;;;;;;;6.35;3.67;;;;;;;19.97;64.63;99901.13;5052156;28;20053;-63
2022/06/26 00:37:10;;;;;;;5.22;3.35;;;;;;;20.12;63.58;99921.03;5067134;28;20508;-63
2022/06/26 00:39:40;;;;;;;4.82;3.38;;;;;;;20.25;62.69;99936.47;5072061;28;20056;-63
2022/06/26 00:42:07;;;;;;;4.53;3.10;;;;;;;20.41;62.44;99936.16;5076110;28;20134;-62
2022/06/26 00:44:38;;;;;;;4.97;3.40;;;;;;;20.53;63.96;99930.16;5076278;28;20052;-62
2022/06/26 00:47:06;;;;;;;4.93;4.40;;;;;;;20.56;64.82;99920.91;5062106;28;20060;-62
2022/06/26 00:49:36;;;;;;;6.45;5.53;;;;;;;20.60;66.59;99933.06;5056042;28;20053;-62
2022/06/26 00:52:04;;;;;;;6.63;6.03;;;;;;;20.72;67.18;99931.09;5056196;28;20053;-62
2022/06/26 00:54:31;;;;;;;7.70;7.00;;;;;;;20.72;67.91;99922.59;5072818;28;20067;-62
2022/06/26 00:57:01;;;;;;;10.50;7.40;;;;;;;20.73;67.98;99915.75;5076059;28;20048;-62
2022/06/26 00:59:29;;;;;;;7.40;6.80;;;;;;;20.77;68.04;99919.41;5075765;28;20060;-62
2022/06/26 01:02:00;;;;;;;9.02;8.15;;;;;;;20.81;68.15;99920.22;5075763;28;20053;-62
2022/06/26 01:04:30;;;;;;;8.38;7.55;;;;;;;20.83;68.01;99912.13;5072137;28;20075;-63
2022/06/26 01:06:58;;;;;;;9.25;8.35;;;;;;;20.82;68.34;99907.69;5075693;28;20063;-61
2022/06/26 01:09:25;;;;;;;8.45;7.65;;;;;;;20.87;67.99;99915.78;5075955;28;20053;-62
2022/06/26 01:11:53;;;;;;;8.60;7.85;;;;;;;20.83;68.19;99903.63;5075543;28;20055;-62
2022/06/26 01:14:22;;;;;;;8.20;7.40;;;;;;;20.80;68.22;99905.25;5071412;28;20051;-62
2022/06/26 01:16:50;;;;;;;7.75;7.05;;;;;;;20.82;68.25;99908.50;5076158;28;20060;-62
2022/06/26 01:19:20;;;;;;;7.93;7.07;;;;;;;20.79;68.42;99905.66;5075691;28;20089;-62
2022/06/26 01:21:48;;;;;;;7.57;6.78;;;;;;;20.83;68.12;99901.66;5063677;28;20068;-62
2022/06/26 01:24:17;;;;;;;7.57;6.88;;;;;;;20.88;67.96;99900.44;5063601;28;20515;-62
2022/06/26 01:26:47;;;;;;;7.85;7.15;;;;;;;20.93;67.76;99899.25;5075791;28;20052;-62
2022/06/26 01:29:14;;;;;;;7.07;6.43;;;;;;;20.93;67.48;99907.72;5075417;28;20076;-62
2022/06/26 01:31:42;;;;;;;8.57;7.20;;;;;;;20.93;67.55;99902.88;5075480;28;20063;-62
2022/06/26 01:34:12;;;;;;;6.70;6.10;;;;;;;20.91;67.27;99899.63;5071216;28;20063;-62
2022/06/26 01:36:40;;;;;;;5.97;5.47;;;;;;;20.98;66.88;99901.69;5071283;28;20063;-62
2022/06/26 01:39:07;;;;;;;6.68;6.07;;;;;;;20.94;66.88;99901.69;5075483;28;20405;-62
2022/06/26 01:41:36;;;;;;;6.82;5.40;;;;;;;20.94;66.84;99904.50;5068032;28;20056;-62
2022/06/26 01:44:09;;;;;;;6.40;5.90;;;;;;;20.94;66.79;99907.34;5074807;28;20059;-62
2022/06/26 01:46:39;;;;;;;7.80;6.28;;;;;;;20.96;66.63;99899.25;5075558;28;20052;-62
2022/06/26 01:49:07;;;;;;;6.45;5.32;;;;;;;20.94;66.64;99901.69;5075182;28;20405;-62
2022/06/26 01:51:35;;;;;;;6.25;5.18;;;;;;;20.90;66.72;99903.69;5071542;28;20056;-62
2022/06/26 01:54:02;;;;;;;5.60;5.03;;;;;;;20.91;66.72;99904.50;5075211;28;20397;-62
2022/06/26 01:56:29;;;;;;;6.60;5.65;;;;;;;20.90;66.82;99908.53;5074669;28;20057;-62
2022/06/26 01:58:58;;;;;;;7.30;6.60;;;;;;;20.74;67.57;99911.69;5075070;28;20100;-62
2022/06/26 02:01:26;;;;;;;7.05;6.45;;;;;;;20.75;67.58;99914.16;5072103;28;20485;-62
2022/06/26 02:03:53;;;;;;;7.05;6.45;;;;;;;20.69;67.97;99915.72;5074792;28;20127;-63
2022/06/26 02:06:23;;;;;;;7.15;6.32;;;;;;;20.68;67.88;99925.41;5074992;28;20052;-63
2022/06/26 02:08:50;;;;;;;7.60;6.97;;;;;;;20.65;67.74;99924.19;5075375;28;20475;-63
2022/06/26 02:14:04;;;;;;;6.85;6.25;;;;;;;20.62;67.99;99922.16;5075390;28;20060;-62
2022/06/26 02:16:34;;;;;;;7.40;6.70;;;;;;;20.57;68.09;99925.34;5074534;28;20059;-62
2022/06/26 02:19:02;;;;;;;6.93;6.43;;;;;;;20.55;68.19;99926.94;5074869;28;20428;-62
2022/06/26 02:21:30;;;;;;;7.88;7.15;;;;;;;20.50;68.38;99936.63;5073571;28;20067;-62
2022/06/26 02:23:59;;;;;;;9.60;8.67;;;;;;;20.42;68.83;99940.59;5070902;28;20048;-63
2022/06/26 02:26:26;;;;;;;8.68;7.97;;;;;;;20.38;68.97;99948.25;5075039;28;20469;-63
2022/06/26 02:28:54;;;;;;;10.38;9.48;;;;;;;20.36;69.13;99942.19;5074666;28;20049;-62
2022/06/26 02:31:23;;;;;;;10.23;9.23;;;;;;;20.29;69.23;99945.78;5074788;28;20059;-62
2022/06/26 02:33:53;;;;;;;;;;;;;;;20.24;69.12;99946.13;5069428;28;20056;-62
2022/06/26 02:36:20;;;;;;;12.75;11.50;;;;;;;20.14;69.72;99955.34;5074266;28;19927;-62
2022/06/26 02:38:50;;;;;;;12.05;10.95;;;;;;;20.13;69.80;99956.56;5074563;28;20044;-62
2022/06/26 02:41:18;;;;;;;12.60;11.50;;;;;;;20.07;69.92;99962.59;5074221;28;20501;-62
2022/06/26 02:43:45;;;;;;;12.10;11.10;;;;;;;20.08;70.01;99963.41;5065233;28;20053;-63
2022/06/26 02:46:15;;;;;;;11.55;10.65;;;;;;;20.06;70.09;99960.97;5053808;28;20063;-62
2022/06/26 02:48:44;;;;;;;12.50;11.32;;;;;;;20.07;70.15;99964.59;5054461;28;20060;-63
2022/06/26 02:51:11;;;;;;;11.93;10.82;;;;;;;19.99;70.39;99962.91;5054163;28;20056;-62
2022/06/26 02:53:39;;;;;;;12.55;11.23;;;;;;;19.90;71.14;99973.75;5055681;28;20056;-64
2022/06/26 02:56:06;;;;;;;13.63;11.23;;;;;;;19.93;70.93;99978.59;5054086;28;20084;-64
2022/06/26 02:58:33;;;;;;;10.13;9.23;;;;;;;19.95;70.73;99984.69;5053933;28;20056;-65
2022/06/26 03:01:01;;;;;;;10.10;9.20;;;;;;;19.94;70.91;99985.91;5053778;28;20049;-64
2022/06/26 03:03:31;;;;;;;11.05;9.95;;;;;;;19.94;71.08;99983.88;5054060;28;20370;-65
2022/06/26 03:06:00;;;;;;;11.95;10.70;;;;;;;19.89;71.25;99975.75;5073542;28;20404;-64
2022/06/26 03:08:27;;;;;;;11.57;10.63;;;;;;;19.90;71.36;99977.38;5073769;28;20132;-65
2022/06/26 03:10:54;;;;;;;11.77;10.65;;;;;;;19.79;71.81;99974.47;5073720;28;20060;-64
2022/06/26 03:13:22;;;;;;;12.80;11.60;;;;;;;19.76;71.77;99982.88;5073800;28;20381;-64
2022/06/26 03:15:49;;;;;;;12.70;11.57;;;;;;;19.72;72.02;99976.38;5070779;28;20504;-64
2022/06/26 03:18:16;;;;;;;11.52;10.40;;;;;;;19.76;71.87;99975.25;5073582;28;20048;-65
2022/06/26 03:20:44;;;;;;;11.68;10.57;;;;;;;19.76;71.67;99988.53;5073666;28;20056;-64
2022/06/26 03:23:13;;;;;;;11.95;10.95;;;;;;;19.69;72.09;99986.44;5073253;28;20421;-65
2022/06/26 03:25:40;;;;;;;11.85;10.70;;;;;;;19.73;71.80;99995.00;5066351;28;20063;-65
2022/06/26 03:28:08;;;;;;;10.18;9.13;;;;;;;19.73;71.81;99980.84;5070325;28;20048;-64
2022/06/26 03:30:35;;;;;;;10.52;9.63;;;;;;;19.71;71.78;99975.59;5073172;28;20064;-64
2022/06/26 03:33:02;;;;;;;10.63;9.73;;;;;;;19.72;71.55;99965.94;5069507;28;20053;-65
2022/06/26 03:35:30;;;;;;;10.50;9.65;;;;;;;19.74;71.64;99974.00;5061981;28;20056;-64
2022/06/26 03:37:57;;;;;;;10.85;9.90;;;;;;;19.71;71.61;99975.59;5073018;28;20064;-65
2022/06/26 03:40:26;;;;;;;12.20;10.88;;;;;;;19.71;71.35;99997.38;5073112;28;20056;-65
2022/06/26 03:42:53;;;;;;;11.35;10.25;;;;;;;19.67;71.74;99995.31;5072800;28;20485;-65
2022/06/26 03:45:20;;;;;;;10.43;9.43;;;;;;;19.66;71.68;99995.69;5069026;28;20041;-64
2022/06/26 03:47:48;;;;;;;10.85;9.85;;;;;;;19.70;71.51;99993.75;5072154;28;20059;-65
2022/06/26 03:50:17;;;;;;;11.32;10.23;;;;;;;19.70;71.39;100002.22;5072966;28;20056;-64
2022/06/26 03:52:44;;;;;;;;;;;;;;;19.62;71.37;99998.47;5073775;28;20057;-65
2022/06/26 03:55:11;;;;;;;10.25;9.20;;;;;;;19.60;71.76;99998.06;5070566;28;20300;-64
2022/06/26 03:57:40;;;;;;;10.65;9.55;;;;;;;19.57;71.57;99996.03;5071530;28;20052;-65
2022/06/26 04:00:09;;;;;;;10.75;9.73;;;;;;;19.61;71.37;100002.53;5072632;28;20052;-65
2022/06/26 04:02:37;;;;;;;9.90;9.02;;;;;;;19.63;71.23;99991.66;5072651;28;20056;-64
2022/06/26 04:05:05;;;;;;;10.70;9.80;;;;;;;19.62;71.11;100001.31;5072413;28;20053;-65
2022/06/26 04:07:32;;;;;;;10.80;9.80;;;;;;;19.56;71.42;100014.16;5070001;28;20512;-65
2022/06/26 04:10:03;;;;;;;11.85;10.05;;;;;;;19.54;71.70;100005.25;5067471;28;20059;-65
2022/06/26 04:12:30;;;;;;;10.25;9.35;;;;;;;19.57;71.88;100026.25;5069970;28;20053;-65
2022/06/26 04:14:59;;;;;;;10.25;9.35;;;;;;;19.62;71.91;100029.56;5071471;28;20049;-65
2022/06/26 04:17:26;;;;;;;9.15;8.30;;;;;;;19.73;71.79;100034.56;5068975;28;20048;-64
2022/06/26 04:19:54;;;;;;;9.15;8.35;;;;;;;19.81;72.11;100037.06;5071660;28;20052;-65
2022/06/26 04:22:23;;;;;;;9.40;8.50;;;;;;;19.87;71.85;100029.03;5072381;28;20060;-64
2022/06/26 04:24:52;;;;;;;10.55;9.00;;;;;;;19.92;71.84;100030.69;5072585;28;20045;-64
2022/06/26 04:27:19;;;;;;;9.48;8.68;;;;;;;19.98;71.68;100029.94;5067178;28;20075;-65
2022/06/26 04:29:46;;;;;;;9.05;8.25;;;;;;;20.07;71.34;100038.09;5072370;28;20067;-64
2022/06/26 04:32:15;;;;;;;9.38;8.48;;;;;;;20.15;71.16;100042.63;5072078;28;20060;-65
2022/06/26 04:34:43;;;;;;;9.63;8.73;;;;;;;20.20;71.03;100047.94;5072133;28;20508;-65
2022/06/26 04:37:10;;;;;;;9.07;8.18;;;;;;;20.30;70.70;100049.22;5058060;28;20049;-65
2022/06/26 04:39:37;;;;;;;9.63;8.60;;;;;;;20.38;70.37;100052.94;5072508;28;20048;-65
2022/06/26 04:42:05;;;;;;;11.35;10.25;;;;;;;20.41;70.16;100055.78;5072319;28;20052;-65
2022/06/26 04:44:33;;;;;;;10.13;9.18;;;;;;;20.39;70.45;100060.19;5072204;28;20415;-65
2022/06/26 04:47:00;;;;;;;10.35;8.95;;;;;;;20.43;69.99;100061.03;5069488;28;20086;-65
2022/06/26 04:49:28;;;;;;;9.73;8.82;;;;;;;20.53;69.75;100065.97;5070269;28;20056;-65
2022/06/26 04:51:56;;;;;;;9.10;8.30;;;;;;;20.56;69.65;100062.38;5072417;28;20492;-64
2022/06/26 04:54:23;;;;;;;9.82;8.85;;;;;;;20.49;69.70;100056.66;5072106;28;20166;-65
2022/06/26 04:56:50;;;;;;;9.93;8.95;;;;;;;20.51;69.64;100064.75;5071998;28;20049;-65
2022/06/26 04:59:18;;;;;;;9.68;8.15;;;;;;;20.43;69.76;100075.19;5068251;28;20053;-64
2022/06/26 05:01:45;;;;;;;9.60;8.70;;;;;;;20.43;69.48;100073.19;5072134;28;20052;-65
2022/06/26 05:04:13;;;;;;;8.80;7.90;;;;;;;20.27;69.56;100076.28;5070949;28;20088;-65
2022/06/26 05:06:42;;;;;;;9.38;8.30;;;;;;;20.35;69.16;100081.97;5072102;28;20049;-64
2022/06/26 05:09:09;;;;;;;8.82;7.90;;;;;;;20.18;69.26;100070.13;5063123;28;20059;-65
2022/06/26 05:11:36;;;;;;;7.38;6.68;;;;;;;20.19;68.53;100068.91;5069971;28;20060;-65
2022/06/26 05:14:04;;;;;;;6.93;6.22;;;;;;;20.22;68.34;100072.97;5071893;28;20052;-65
2022/06/26 05:16:31;;;;;;;6.55;5.93;;;;;;;20.20;68.15;100067.75;5071633;28;20508;-65
2022/06/26 05:18:58;;;;;;;6.30;5.70;;;;;;;20.26;68.25;100071.84;5067726;28;20476;-65
2022/06/26 05:21:25;;;;;;;6.00;5.45;;;;;;;20.31;67.93;100072.69;5072306;28;20056;-65
2022/06/26 05:23:55;;;;;;;6.90;6.07;;;;;;;20.42;67.26;100074.38;5071891;28;20048;-65
2022/06/26 05:26:23;;;;;;;6.32;5.25;;;;;;;20.55;67.00;100080.53;5069039;28;20059;-65
2022/06/26 05:28:50;;;;;;;5.57;5.07;;;;;;;20.66;66.71;100101.28;5075585;28;20053;-65
2022/06/26 05:31:18;;;;;;;5.68;4.90;;;;;;;20.72;65.90;100100.91;5075129;28;20056;-65
2022/06/26 05:33:45;;;;;;;4.78;4.30;;;;;;;20.72;66.01;100092.44;5075364;28;20053;-64
2022/06/26 05:36:13;;;;;;;5.10;4.60;;;;;;;20.86;65.84;100095.38;5073196;28;20071;-65
2022/06/26 05:38:40;;;;;;;5.00;4.53;;;;;;;20.97;65.08;100084.91;5074233;28;20059;-64
2022/06/26 05:41:09;;;;;;;5.82;4.82;;;;;;;21.14;64.61;100094.72;5072359;28;20433;-64
2022/06/26 05:43:36;;;;;;;6.20;5.00;;;;;;;21.31;64.00;100093.19;5055326;28;20059;-64
2022/06/26 05:46:04;;;;;;;5.25;4.80;;;;;;;21.49;63.00;100091.28;5055323;28;20049;-64
2022/06/26 05:48:31;;;;;;;4.85;4.45;;;;;;;21.78;62.68;100097.06;5067934;28;20053;-64
2022/06/26 05:50:58;;;;;;;5.20;4.13;;;;;;;22.06;62.37;100104.03;5075170;28;20063;-64
2022/06/26 05:53:26;;;;;;;4.55;3.95;;;;;;;22.25;60.84;100120.69;5075284;28;20400;-64
2022/06/26 05:55:53;;;;;;;3.88;3.58;;;;;;;22.35;59.66;100119.09;5074935;28;20056;-64
2022/06/26 05:58:22;;;;;;;3.70;3.30;;;;;;;22.43;60.08;100108.56;5072235;28;20068;-64
2022/06/26 06:00:49;;;;;;;4.72;4.10;;;;;;;22.39;58.65;100121.94;5072333;28;20106;-64
2022/06/26 06:03:16;;;;;;;5.15;4.13;;;;;;;22.37;59.22;100118.69;5072049;28;20516;-64
2022/06/26 06:05:45;;;;;;;6.38;4.50;;;;;;;22.67;58.59;100110.59;5074703;28;20048;-64
2022/06/26 06:08:13;;;;;;;4.60;4.03;;;;;;;22.78;58.09;100115.44;5070994;28;20476;-64
2022/06/26 06:10:40;;;;;;;4.18;3.33;;;;;;;22.88;57.97;100114.63;5074602;28;20049;-64
2022/06/26 06:13:07;;;;;;;4.78;3.80;;;;;;;22.86;58.00;100122.75;5074686;28;20053;-64
2022/06/26 06:15:36;;;;;;;3.92;3.53;;;;;;;22.96;57.73;100121.13;5074295;28;20060;-64
2022/06/26 06:18:03;;;;;;;4.32;3.92;;;;;;;22.95;57.17;100113.81;5071730;28;20060;-64
2022/06/26 06:20:31;;;;;;;4.72;3.72;;;;;;;23.00;57.55;100122.72;5074651;28;20059;-64
2022/06/26 06:23:02;;;;;;;6.07;4.47;;;;;;;23.13;57.10;100131.66;5074769;28;20057;-64
2022/06/26 06:25:29;;;;;;;4.85;4.15;;;;;;;23.14;56.87;100123.94;5072495;28;20503;-64
2022/06/26 06:27:57;;;;;;;4.10;3.60;;;;;;;23.09;57.22;100131.66;5072582;28;20052;-65
2022/06/26 06:30:25;;;;;;;6.63;3.80;;;;;;;23.17;57.44;100123.94;5074395;28;20053;-64
2022/06/26 06:32:54;;;;;;;5.03;4.03;;;;;;;23.20;57.24;100136.53;5074268;28;20064;-64
2022/06/26 06:35:22;;;;;;;6.47;4.55;;;;;;;23.29;56.91;100145.44;5073966;28;20052;-64
2022/06/26 06:37:49;;;;;;;5.60;3.60;;;;;;;23.29;56.88;100148.28;5070121;28;20052;-64
2022/06/26 06:40:16;;;;;;;4.78;3.80;;;;;;;23.27;56.94;100147.88;5074419;28;20071;-64
2022/06/26 06:42:44;;;;;;;4.03;3.58;;;;;;;23.26;56.40;100151.94;5057927;28;20052;-64
2022/06/26 06:45:12;;;;;;;4.57;3.10;;;;;;;23.24;56.40;100148.69;5053827;28;20512;-64
2022/06/26 06:47:39;;;;;;;4.70;3.55;;;;;;;23.27;56.64;100154.38;5064564;28;20477;-64
2022/06/26 06:50:09;;;;;;;3.60;3.30;;;;;;;23.33;56.62;100151.94;5073827;28;20060;-64
2022/06/26 06:52:36;;;;;;;3.95;3.10;;;;;;;23.42;56.27;100146.63;5073561;28;20366;-64
2022/06/26 06:55:05;;;;;;;4.72;3.60;;;;;;;23.53;56.04;100165.69;5074108;28;20064;-64
2022/06/26 06:57:32;;;;;;;4.38;3.67;;;;;;;23.55;55.97;100178.25;5068911;28;20053;-64
2022/06/26 06:59:59;;;;;;;4.50;4.07;;;;;;;23.50;56.14;100173.81;5069104;28;20045;-64
2022/06/26 07:02:27;;;;;;;4.38;3.97;;;;;;;23.46;55.66;100184.38;5072366;28;20060;-65
2022/06/26 07:04:54;;;;;;;7.30;4.28;;;;;;;23.32;56.37;100184.41;5073247;28;20052;-66
2022/06/26 07:07:23;;;;;;;4.78;4.28;;;;;;;23.15;56.67;100183.22;5073840;28;20048;-65
2022/06/26 07:09:50;;;;;;;5.38;4.25;;;;;;;23.06;56.54;100192.16;5072372;28;20044;-65
2022/06/26 07:12:17;;;;;;;5.38;4.50;;;;;;;22.94;57.03;100206.72;5069137;28;20595;-65
2022/06/26 07:14:45;;;;;;;7.30;3.90;;;;;;;22.83;57.24;100208.78;5073384;28;20056;-65
2022/06/26 07:17:13;;;;;;;5.13;4.00;;;;;;;22.73;57.64;100218.88;5073205;28;20049;-65
2022/06/26 07:19:41;;;;;;;3.83;3.53;;;;;;;22.59;57.88;100224.53;5073170;28;20580;-65
2022/06/26 07:22:08;;;;;;;4.85;3.50;;;;;;;22.57;57.77;100224.94;5065887;28;20048;-65
2022/06/26 07:24:38;;;;;;;4.05;3.15;;;;;;;22.55;57.78;100227.38;5070081;28;20131;-65
2022/06/26 07:27:06;;;;;;;5.32;3.47;;;;;;;22.50;57.55;100231.41;5073021;28;20052;-65
2022/06/26 07:29:35;;;;;;;5.47;4.05;;;;;;;22.39;58.00;100241.13;5073648;28;20049;-64
2022/06/26 07:32:02;;;;;;;4.50;3.20;;;;;;;22.51;57.74;100240.78;5072907;28;20052;-64
2022/06/26 07:34:30;;;;;;;4.10;3.00;;;;;;;22.62;57.10;100235.13;5069465;28;21041;-64
2022/06/26 07:36:57;;;;;;;4.50;2.80;;;;;;;22.80;56.38;100246.47;5072398;28;20045;-65
2022/06/26 07:39:25;;;;;;;2.40;2.20;;;;;;;22.55;55.42;100254.94;5053040;28;20063;-65
2022/06/26 07:41:54;;;;;;;2.75;2.05;;;;;;;22.63;55.01;100245.25;5061994;28;20052;-64
2022/06/26 07:44:21;;;;;;;3.20;1.98;;;;;;;22.73;54.52;100252.16;5067329;28;20056;-65
2022/06/26 07:46:48;;;;;;;2.95;2.28;;;;;;;22.74;55.08;100253.78;5073374;28;20379;-64
2022/06/26 07:49:16;;;;;;;3.35;1.83;;;;;;;22.99;54.75;100260.28;5072460;28;20416;-65
2022/06/26 07:51:43;;;;;;;3.22;2.20;;;;;;;23.30;53.39;100264.38;5072934;28;20053;-64
2022/06/26 07:54:10;;;;;;;3.38;2.05;;;;;;;23.66;52.78;100258.66;5069168;28;20630;-65
2022/06/26 07:56:38;;;;;;;4.32;2.55;;;;;;;24.04;52.42;100255.31;5072443;28;20056;-65
2022/06/26 07:59:07;;;;;;;4.45;2.42;;;;;;;24.55;50.65;100244.53;5072865;28;20052;-64
2022/06/26 08:01:35;;;;;;;2.75;1.90;;;;;;;25.48;48.25;100236.09;5068892;28;20052;-64
2022/06/26 08:04:03;;;;;;;3.33;1.98;;;;;;;26.55;45.18;100247.47;5069743;28;20069;-63
2022/06/26 08:06:30;;;;;;;2.20;1.70;;;;;;;26.32;45.29;100236.78;5070532;28;20053;-65
2022/06/26 08:08:58;;;;;;;3.30;1.73;;;;;;;26.55;44.73;100236.03;5070230;28;20505;-65
2022/06/26 08:11:25;;;;;;;2.10;1.60;;;;;;;27.21;43.28;100239.53;5068809;28;20057;-65
2022/06/26 08:13:53;;;;;;;5.40;1.67;;;;;;;27.37;42.99;100248.25;5082511;28;20078;-64
2022/06/26 08:16:22;;;;;;;2.35;1.63;;;;;;;27.38;43.08;100238.44;5065966;28;20539;-64
2022/06/26 08:18:49;;;;;;;2.20;1.60;;;;;;;27.78;41.70;100241.34;5083283;28;20055;-65
2022/06/26 08:24:03;;;;;;;2.42;1.45;;;;;;;31.46;35.74;100219.66;5061612;28;20064;-65
2022/06/26 08:26:30;;;;;;;5.10;1.60;;;;;;;32.63;32.73;100207.81;5068155;28;20059;-65
2022/06/26 08:28:57;;;;;;;3.13;1.75;;;;;;;33.27;30.76;100212.22;5071703;28;20052;-64
2022/06/26 08:31:26;;;;;;;2.70;1.48;;;;;;;33.54;30.73;100212.25;5071480;28;20500;-65
2022/06/26 08:33:53;;;;;;;;;;;;;;;33.17;30.00;100226.63;5071544;28;20060;-65
2022/06/26 08:36:20;;;;;;;2.00;1.00;;;;;;;32.82;29.20;100222.31;5068090;28;19920;-65
2022/06/26 08:38:47;;;;;;;2.80;1.13;;;;;;;32.28;30.33;100228.13;5071812;28;20052;-64
2022/06/26 08:41:15;;;;;;;1.35;0.90;;;;;;;31.71;30.26;100230.25;5066380;28;20056;-65
2022/06/26 08:43:44;;;;;;;1.85;1.00;;;;;;;31.04;32.05;100234.22;5087227;28;20059;-64
2022/06/26 08:46:11;;;;;;;2.20;1.02;;;;;;;30.64;32.09;100241.22;5072074;28;20056;-64
2022/06/26 08:48:44;;;;;;;1.77;0.90;;;;;;;29.94;33.36;100243.69;5080460;28;20048;-64
2022/06/26 08:51:12;;;;;;;2.08;0.98;;;;;;;29.65;34.53;100245.69;5062591;28;20048;-63
2022/06/26 08:53:41;;;;;;;1.70;1.05;;;;;;;29.71;34.91;100244.75;5071942;28;20416;-63
2022/06/26 08:56:09;;;;;;;1.40;1.10;;;;;;;29.69;35.31;100247.22;5071161;28;20063;-65
2022/06/26 08:58:36;;;;;;;2.80;1.10;;;;;;;29.63;35.58;100257.66;5076327;28;20052;-64
2022/06/26 09:01:05;;;;;;;2.60;1.10;;;;;;;29.36;35.70;100263.69;5092266;28;20515;-64
2022/06/26 09:03:33;;;;;;;1.75;1.00;;;;;;;29.02;36.32;100275.56;5077819;28;20056;-64
2022/06/26 09:06:02;;;;;;;3.05;1.25;;;;;;;28.89;36.43;100267.66;5070108;28;20056;-64
2022/06/26 09:08:30;;;;;;;;;;;;;;;28.82;36.13;100267.03;5084655;28;20055;-63
2022/06/26 09:10:58;;;;;;;1.40;0.87;;;;;;;28.60;35.39;100281.88;5076483;28;19934;-64
2022/06/26 09:13:37;;;;;;;2.13;0.80;;;;;;;28.19;36.08;100280.25;5071267;28;20051;-64
2022/06/26 09:16:05;;;;;;;2.03;1.08;;;;;;;27.95;36.68;100288.13;5071476;28;20044;-64
2022/06/26 09:18:35;;;;;;;1.07;0.73;;;;;;;27.46;38.22;100282.03;5074698;28;20420;-64
2022/06/26 09:21:05;;;;;;;2.50;1.08;;;;;;;26.99;39.25;100293.41;5077767;28;20063;-64
2022/06/26 09:23:33;;;;;;;2.13;1.00;;;;;;;26.91;39.75;100289.84;5060361;28;20048;-63
2022/06/26 09:26:01;;;;;;;1.20;0.90;;;;;;;27.00;39.79;100287.22;5073106;28;20066;-63
2022/06/26 09:28:29;;;;;;;2.65;1.05;;;;;;;27.19;39.61;100282.84;5078278;28;20399;-63
2022/06/26 09:30:58;;;;;;;2.38;1.17;;;;;;;27.21;39.40;100285.28;5078411;28;20052;-63
2022/06/26 09:33:26;;;;;;;;;;;;;;;27.11;40.11;100296.47;5072497;28;20048;-63
2022/06/26 09:35:54;;;;;;;2.80;1.10;;;;;;;27.39;39.44;100290.75;5069526;28;19924;-62
2022/06/26 09:38:25;;;;;;;3.38;1.35;;;;;;;27.67;38.23;100292.28;5069410;28;20048;-63
2022/06/26 09:40:54;;;;;;;2.00;1.02;;;;;;;27.86;38.35;100300.13;5069613;28;20071;-63
2022/06/26 09:43:34;;;;;;;3.08;1.38;;;;;;;27.77;38.03;100299.84;5092579;28;20059;-63
2022/06/26 09:46:04;;;;;;;3.13;1.20;;;;;;;27.71;38.69;100301.59;5073821;28;20052;-63
2022/06/26 09:48:32;;;;;;;2.78;1.13;;;;;;;27.61;38.93;100300.53;5092766;28;20063;-63
2022/06/26 09:51:00;;;;;;;1.83;1.02;;;;;;;27.48;39.01;100299.56;5072255;28;20052;-64
2022/06/26 09:53:30;;;;;;;3.17;1.35;;;;;;;27.52;39.26;100309.69;5073500;28;20048;-64
2022/06/26 09:55:58;;;;;;;2.17;1.17;;;;;;;27.49;38.83;100316.31;5094145;28;20052;-64
2022/06/26 09:58:29;;;;;;;1.52;1.15;;;;;;;27.35;38.60;100307.97;5074852;28;20056;-64
2022/06/26 10:06:30;;;;;;;1.85;1.02;;;;;;;27.00;39.91;100332.97;5072753;28;20064;-64
2022/06/26 10:09:05;;;;;;;2.00;1.10;;;;;;;26.86;39.61;100328.28;5088408;28;20492;-63
2022/06/26 10:11:35;;;;;;;1.92;1.30;;;;;;;26.79;40.05;100333.28;5067716;28;20055;-64
2022/06/26 10:14:07;;;;;;;1.98;1.30;;;;;;;26.61;39.15;100322.13;5071446;28;20058;-63
2022/06/26 10:17:12;;;;;;;2.33;1.10;;;;;;;26.46;40.10;100324.31;5073602;28;20079;-62
2022/06/26 10:19:45;;;;;;;1.40;0.82;;;;;;;26.24;39.99;100324.56;5074926;28;20493;-62
2022/06/26 10:22:13;;;;;;;2.50;0.95;;;;;;;26.24;40.21;100327.41;5070502;28;20416;-62
2022/06/26 10:24:58;;;;;;;3.15;1.23;;;;;;;26.26;40.80;100338.41;5080173;28;20080;-63
2022/06/26 10:27:27;;;;;;;1.85;1.08;;;;;;;26.25;39.98;100340.47;5054415;28;20064;-63
2022/06/26 10:30:06;;;;;;;2.15;0.98;;;;;;;26.23;40.42;100330.72;5080322;28;20424;-64
2022/06/26 10:32:34;;;;;;;1.88;1.10;;;;;;;26.33;39.87;100326.91;5064237;28;20404;-64
2022/06/26 10:35:03;;;;;;;1.70;1.10;;;;;;;26.32;39.34;100325.31;5073530;28;20057;-64
2022/06/26 10:37:41;;;;;;;2.38;1.20;;;;;;;26.11;39.59;100332.88;5074295;28;20052;-63
2022/06/26 10:43:09;;;;;;;1.67;1.00;;;;;;;26.80;38.58;100338.59;5073443;28;20055;-62
2022/06/26 10:45:38;;;;;;;2.35;1.30;;;;;;;27.52;37.70;100332.59;5074096;28;20053;-64
2022/06/26 10:48:09;;;;;;;2.00;1.25;;;;;;;29.18;36.00;100349.38;5074721;28;20417;-64
2022/06/26 10:50:38;;;;;;;3.03;1.60;;;;;;;29.87;32.78;100346.44;5073889;28;20531;-63
2022/06/26 10:53:31;;;;;;;2.03;1.20;;;;;;;30.97;32.35;100347.41;5069076;28;20058;-63
2022/06/26 10:56:02;;;;;;;2.00;1.23;;;;;;;31.37;31.01;100346.94;5070084;28;20052;-64
2022/06/26 10:58:35;;;;;;;2.13;1.20;;;;;;;31.91;30.13;100343.09;5074013;28;20057;-63
2022/06/26 11:01:04;;;;;;;1.92;1.33;;;;;;;31.96;30.12;100338.78;5073876;28;20049;-63
2022/06/26 11:03:37;;;;;;;2.67;1.00;;;;;;;31.93;30.32;100342.63;5069766;28;20516;-65
2022/06/26 11:06:09;;;;;;;3.35;1.50;;;;;;;33.05;28.00;100336.38;5073483;28;20420;-64
2022/06/26 11:08:38;;;;;;;1.90;1.10;;;;;;;34.88;25.79;100316.84;5073831;28;20055;-63
2022/06/26 11:11:14;;;;;;;2.28;1.10;;;;;;;34.90;26.31;100326.66;5066873;28;20067;-61
2022/06/26 11:13:50;;;;;;;1.75;1.08;;;;;;;34.82;25.65;100319.63;5066796;28;20056;-62
2022/06/26 11:16:18;;;;;;;2.67;0.98;;;;;;;34.67;26.36;100312.91;5073589;28;20508;-63
2022/06/26 11:18:48;;;;;;;2.00;1.10;;;;;;;34.70;26.12;100321.41;5073259;28;20508;-63
2022/06/26 11:21:17;;;;;;;2.53;0.95;;;;;;;34.85;25.32;100315.75;5073209;28;20469;-64
2022/06/26 11:23:44;;;;;;;3.28;1.30;;;;;;;35.20;25.58;100314.53;5066580;28;20500;-64
2022/06/26 11:26:15;;;;;;;2.10;1.27;;;;;;;35.20;25.86;100320.31;5072747;28;20052;-62
2022/06/26 11:28:46;;;;;;;1.98;0.90;;;;;;;35.13;25.14;100310.66;5073263;28;20424;-62
2022/06/26 11:31:27;;;;;;;2.40;1.27;;;;;;;34.86;25.35;100313.63;5073352;28;20417;-63
2022/06/26 11:33:54;;;;;;;2.65;1.35;;;;;;;34.29;25.70;100317.94;5067387;28;20074;-63
2022/06/26 11:36:23;;;;;;;3.83;1.13;;;;;;;34.27;26.01;100320.50;5073253;28;20048;-62
2022/06/26 11:38:54;;;;;;;2.40;1.30;;;;;;;34.39;26.35;100309.25;5072136;28;20053;-62
2022/06/26 11:41:24;;;;;;;1.50;1.10;;;;;;;34.25;26.38;100299.94;5073101;28;20063;-62
2022/06/26 11:43:55;;;;;;;1.77;1.20;;;;;;;34.16;25.83;100308.63;5070033;28;20063;-63
2022/06/26 11:46:24;;;;;;;3.83;1.70;;;;;;;33.65;26.96;100315.78;5076526;28;20420;-62
2022/06/26 11:48:52;;;;;;;3.85;1.75;;;;;;;33.32;27.31;100321.28;5071587;28;20084;-63